הכול
Mount Hotham Airport (Bright, Victoria) MHU מזג אוויר
|
Bright, Victoria (MHU / YHOT)
שמים בהירים
רוחות קלות |
|
14 °C |
There is no TAF data available at MHU or any nearby airports.
Recent MHU METAR history
| Date | Time (AEST) | Flight Rules | Wind Dir. | Speed | Type | Height AGL (ft) | Visibility | Temp (°C) | Temp (°F) | Dew Point (°C) | Dew Point (°F) | Rel. Humid. | Pressure | Density Altitude | Remarks |
|---|---|---|---|---|---|---|---|---|---|---|---|---|---|---|---|
| 06-מאי | 11:00 | VFR | 330° | 8 kt | 10000 meters | 14° | 57° | -2° | 28° | 33% | 1019 mb | 4,919 ft | |||
| 06-מאי | 10:00 | VFR | 310° | 8 kt | 10000 meters | 12° | 53° | -2° | 28° | 38% | 1020 mb | 4,650 ft | |||
| 06-מאי | 09:00 | VFR | 330° | 7 kt | 10000 meters | 9° | 48° | -1° | 30° | 49% | 1020 mb | 4,290 ft | |||
| 06-מאי | 08:00 | VFR | 340° | 2 kt | 10000 meters | 5° | 41° | 0° | 32° | 70% | 1020 mb | 3,810 ft | |||
| 06-מאי | 07:00 | VFR | 340° | 5 kt | 10000 meters | 1° | 33° | -1° | 30° | 86% | 1020 mb | 3,330 ft | |||
| 06-מאי | 06:00 | VFR | 330° | 5 kt | 10000 meters | 2° | 35° | -1° | 30° | 80% | 1020 mb | 3,450 ft | |||
| 06-מאי | 05:00 | VFR | 330° | 7 kt | 10000 meters | 2° | 35° | 0° | 32° | 87% | 1020 mb | 3,450 ft | |||
| 06-מאי | 04:00 | VFR | 330° | 5 kt | 10000 meters | 1° | 33° | -2° | 28° | 80% | 1020 mb | 3,330 ft | |||
| 06-מאי | 03:00 | VFR | 320° | 5 kt | 10000 meters | 1° | 33° | -1° | 30° | 86% | 1020 mb | 3,330 ft | |||
| 06-מאי | 02:00 | VFR | 340° | 4 kt | 10000 meters | 1° | 33° | 1° | 33° | 100% | 1021 mb | 3,300 ft | |||
| 06-מאי | 01:00 | VFR | 340° | 4 kt | 10000 meters |
0° | 32° | 0° | 32° | 100% | 1021 mb | 3,180 ft | |||
| 06-מאי | 00:00 | VFR | 340° | 5 kt | 9000 meters |
2° | 35° | 2° | 35° | 100% | 1021 mb | 3,420 ft | |||
| 05-מאי | 23:00 | MVFR | 340° | 3 kt | 6000 meters |
1° | 33° | 0° | 32° | 93% | 1022 mb | 3,271 ft | |||
| 05-מאי | 22:00 | VFR | 350° | 4 kt | 10000 meters | 2° | 35° | 2° | 35° | 100% | 1022 mb | 3,391 ft | |||
| 05-מאי | 21:00 | VFR | 320° | 2 kt | 10000 meters | 1° | 33° | 1° | 33° | 100% | 1022 mb | 3,271 ft | |||
| 05-מאי | 20:00 | VFR | 320° | 3 kt | 10000 meters | 3° | 37° | 2° | 35° | 93% | 1022 mb | 3,511 ft | |||
| 05-מאי | 19:00 | VFR | 330° | 3 kt | 10000 meters | 4° | 39° | 3° | 37° | 93% | 1021 mb | 3,660 ft | |||
| 05-מאי | 18:00 | VFR | 330° | 4 kt | 10000 meters | 5° | 41° | 3° | 37° | 87% | 1021 mb | 3,780 ft | |||
| 05-מאי | 17:00 | VFR | 270° | 3 kt | 10000 meters | 9° | 48° | 3° | 37° | 66% | 1020 mb | 4,290 ft | |||
| 05-מאי | 16:00 | VFR | 220° | 5 kt | 10000 meters | 10° | 50° | 3° | 37° | 62% | 1020 mb | 4,410 ft | |||
| 05-מאי | 15:00 | VFR | 220° | 6 kt | 10000 meters | 11° | 51° | 2° | 35° | 54% | 1019 mb | 4,559 ft | |||
| 05-מאי | 14:00 | VFR | 290° | 5 kt | 10000 meters | 11° | 51° | 3° | 37° | 58% | 1019 mb | 4,559 ft | |||
| 05-מאי | 13:00 | VFR | 270° | 6 kt | 10000 meters | 11° | 51° | 2° | 35° | 54% | 1019 mb | 4,559 ft | |||
| 05-מאי | 12:00 | VFR | 270° | 5 kt | 10000 meters | 11° | 51° | 3° | 37° | 58% | 1019 mb | 4,559 ft |
כניסה לאתר
| אין תמיכה בדפדפן שלך. שדרג את הדפדפן שלך |
